Historyczne dane pomiarowe

Dodano dane terminowe – wersja testowa.

Dane z okresu 1951-2019

Wersja bazy: 1.34 [2019-03-16, lista zmian], aktualizacja planowana na 2019-04-15

Dane meteo z obszaru Polski uzyskane na podstawie danych udostępnionych przez Instytut Meteorologii i Gospodarki Wodnej – Państwowy Instytut Badawczy.

 

Wybierz Datę:    

       

TemperaturaWilgotnośćWiatrCiśnienieOpadyŚniegCzas trwania zjawisk
 Stacja t tx tn tng RH VA  wxwx mslp ppp RRR   cm mm wxwxwxwxwxwxwx
1964-01-17 -9.6 -4.4-22.5--- 8.0 2.7---- 2.0-- 10---------
1964-01-18 -3.5 -2.4 -5.0--- 8.0 3.3---- 0.1-- 10---------
1964-01-19 -9.6 -3.2-12.8--- 2.7 2.3---- 0.0-- 10---------
1964-01-20 -9.7 -3.7-12.9--- 5.3 1.0---- 0.0-- 10---------
1964-01-21 -8.4 -4.3-17.9--- 2.0 1.7---- 0.0-- 10---------
1964-01-22 -3.1 0.7 -9.2--- 6.0 3.0---- 0.3-- 9---------
1964-01-23 -0.1 1.4 -0.5--- 7.7 2.7---- 0.0-- 8---------
1964-01-24 -4.6 0.0 -7.1--- 4.3 4.3---- 0.0-- 8---------
1964-01-25 1.1 1.7 -4.7--- 8.0 7.7---- 1.8-- 8---------
1964-01-26 1.0 2.0 -0.7--- 5.3 3.7---- 0.7-- 7---------
1964-01-27 -1.7 3.2 -5.0--- 2.7 6.3---- 0.5-- 7---------
1964-01-28 -7.5 -2.0-13.9--- 0.7 1.3---- 0.0-- 7---------
1964-01-29 -6.0 -0.3 -8.9--- 1.7 2.0---- 0.0-- 7---------
1964-01-30 -6.8 1.3-14.0--- 0.0 1.0---- 0.0-- 7---------
1964-01-31 -3.0 -1.1 -6.5--- 7.3 1.3---- 0.3-- 7---------
1964-02-01 0.1 2.4 -3.0--- 8.0 3.7---- 3.2-- 7---------
1964-02-02 2.3 3.5 0.5--- 8.0 3.7---- 2.4-- 5---------
1964-02-03 -2.0 2.0 -4.3--- 6.3 3.3---- 0.0------------
1964-02-04 0.8 2.4 -4.3--- 8.0 3.0---- 5.3------------
1964-02-05 -0.9 2.6 -2.4--- 8.0 3.7---- 3.6-- 7---------
1964-02-06 -5.6 -0.9 -7.2--- 5.0 5.0---- 6.1-- 10---------
1964-02-07 -4.6 -3.4 -7.1--- 7.7 8.7---- 3.7-- 15---------
1964-02-08 -3.3 -0.6 -6.9--- 8.0 5.0---- 13.8-- 25---------
1964-02-09 0.7 1.8 -3.9--- 7.3 3.0---- 7.2-- 20---------
1964-02-10 -5.5 0.0 -8.0--- 8.0 1.7---- 4.9-- 21---------
1964-02-11 -1.7 0.6 -7.9--- 8.0 2.3---- 10.9-- 27---------
1964-02-12 -3.0 -0.8 -5.5--- 7.7 1.0---- 3.6-- 39---------
1964-02-13 -8.3 -2.2-10.2--- 7.0 4.3---- 2.8-- 42---------
1964-02-14-11.6 -5.3-16.4--- 4.7 2.3---- 0.2-- 43---------
1964-02-15-14.0 -4.7-27.5--- 2.3 1.0---- 0.0-- 43---------
213.1 ms

 

Źródłem pochodzenia danych jest Instytut Meteorologii i Gospodarki Wodnej – Państwowy Instytut Badawczy. Dane Instytutu Meteorologii i Gospodarki Wodnej – Państwowego Instytutu Badawczego zostały przetworzone.

Dane źródłowe można odnaleźć na stronie https://dane.imgw.pl